Time;durP1;ratioP1;P1;durP2;ratioP2;P2;SDS_P1;SDS_P2;PMS_P1;PMS_P2;Temp;Humidity;BMP_temperature;BMP_pressure;BME280_temperature;BME280_humidity;BME280_pressure;Samples;Min_cycle;Max_cycle;Signal;HPM_P1;HPM_P2
2022/10/24 00:01:51;;;;;;;2.38;0.70;;;;;;;17.26;64.83;96434.50;4906216;29;20052;-80
2022/10/24 00:04:25;;;;;;;4.70;1.00;;;;;;;17.27;65.08;96433.44;4905292;29;20053;-80
2022/10/24 00:06:57;;;;;;;6.55;0.90;;;;;;;17.29;65.47;96439.28;4904798;29;20116;-80
2022/10/24 00:09:26;;;;;;;4.00;1.23;;;;;;;17.28;64.21;96433.22;4904336;29;20053;-80
2022/10/24 00:11:56;;;;;;;3.85;1.00;;;;;;;17.29;64.29;96428.75;4904664;29;20060;-80
2022/10/24 00:14:29;;;;;;;4.38;1.30;;;;;;;17.28;64.68;96432.44;4904459;29;20045;-80
2022/10/24 00:17:00;;;;;;;4.65;1.20;;;;;;;17.27;65.12;96436.91;4904422;29;20056;-80
2022/10/24 00:19:30;;;;;;;6.67;1.23;;;;;;;17.26;64.83;96440.56;4904694;29;20075;-79
2022/10/24 00:21:59;;;;;;;3.22;0.75;;;;;;;17.29;65.46;96434.03;4904215;29;20063;-80
2022/10/24 00:24:28;;;;;;;3.90;0.77;;;;;;;17.28;64.18;96435.88;4903853;29;20063;-80
2022/10/24 00:26:57;;;;;;;3.72;1.40;;;;;;;17.29;64.25;96439.28;4903599;29;20052;-80
2022/10/24 00:29:25;;;;;;;3.30;1.00;;;;;;;17.26;64.60;96435.28;4904106;29;20057;-80
2022/10/24 00:31:53;;;;;;;4.20;1.05;;;;;;;17.22;64.75;96442.03;4903266;29;20062;-80
2022/10/24 00:34:21;;;;;;;4.22;0.80;;;;;;;17.19;64.83;96446.97;4903207;29;20052;-80
2022/10/24 00:36:53;;;;;;;3.38;1.00;;;;;;;17.16;65.28;96450.06;4902775;29;20063;-80
2022/10/24 00:39:21;;;;;;;7.32;1.05;;;;;;;17.13;65.64;96442.63;4902551;29;20108;-80
2022/10/24 00:41:53;;;;;;;5.60;0.90;;;;;;;17.08;65.77;96462.53;4902613;29;20056;-80
2022/10/24 00:44:25;;;;;;;3.57;0.97;;;;;;;17.04;65.84;96458.75;4902685;29;20067;-79
2022/10/24 00:46:55;;;;;;;;;;;;;;;17.02;65.82;96454.72;4902621;29;20060;-79
2022/10/24 00:49:29;;;;;;;3.65;1.15;;;;;;;16.95;66.16;96461.94;4902354;29;19924;-80
2022/10/24 00:52:03;;;;;;;14.52;1.38;;;;;;;16.89;66.42;96445.19;4902095;29;20052;-80
2022/10/24 00:54:33;;;;;;;5.00;0.80;;;;;;;16.85;66.31;96452.72;4902005;29;20056;-80
2022/10/24 00:57:08;;;;;;;7.82;1.10;;;;;;;16.83;66.48;96446.09;4902605;29;20052;-80
2022/10/24 00:59:40;;;;;;;2.90;1.10;;;;;;;16.82;66.98;96461.09;4900951;29;20491;-80
2022/10/24 01:02:10;;;;;;;5.63;0.90;;;;;;;16.82;66.56;96455.81;4901162;29;20081;-80
2022/10/24 01:04:53;;;;;;;;;;;;;;;16.79;66.42;96464.16;4904543;29;20099;-80
2022/10/24 01:07:40;;;;;;;2.40;0.73;;;;;;;16.76;67.37;96454.06;4904049;29;19923;-80
2022/10/24 01:10:29;;;;;;;4.85;1.20;;;;;;;16.73;67.10;96459.78;4903623;29;20054;-80
2022/10/24 01:13:10;;;;;;;6.15;0.90;;;;;;;16.70;67.27;96447.03;4903553;29;20072;-80
2022/10/24 01:15:54;;;;;;;2.67;0.77;;;;;;;16.67;67.31;96442.25;4903625;29;20116;-80
2022/10/24 01:18:34;;;;;;;4.40;0.98;;;;;;;16.62;67.66;96434.22;4903194;29;20511;-80
2022/10/24 01:21:14;;;;;;;4.32;1.10;;;;;;;16.60;67.53;96442.31;4903986;29;20060;-80
2022/10/24 01:24:14;;;;;;;2.45;0.88;;;;;;;16.59;67.64;96439.91;4904317;29;20139;-80
2022/10/24 01:27:04;;;;;;;4.28;1.70;;;;;;;16.56;67.76;96441.16;4899026;29;20503;-80
2022/10/24 01:29:47;;;;;;;5.07;1.00;;;;;;;16.54;67.95;96432.69;4904036;29;20499;-80
2022/10/24 01:32:21;;;;;;;;;;;;;;;16.53;67.55;96446.06;4904054;29;20470;-80
2022/10/24 01:35:00;;;;;;;4.63;1.10;;;;;;;16.46;67.79;96441.72;4903833;29;19931;-80
2022/10/24 01:37:36;;;;;;;4.80;1.17;;;;;;;16.46;67.83;96435.63;4904474;29;20052;-80
2022/10/24 01:40:11;;;;;;;5.95;0.90;;;;;;;16.43;68.34;96434.25;4903652;29;20134;-80
2022/10/24 01:42:42;;;;;;;10.02;1.50;;;;;;;16.40;68.65;96426.00;4904051;29;20056;-80
2022/10/24 01:45:17;;;;;;;3.47;1.20;;;;;;;16.35;68.85;96429.28;4903819;29;20521;-80
2022/10/24 01:47:51;;;;;;;5.07;1.25;;;;;;;16.31;69.13;96417.63;4903154;29;20419;-80
2022/10/24 01:50:21;;;;;;;2.92;0.90;;;;;;;16.29;69.26;96422.28;4903903;29;20049;-80
2022/10/24 01:52:52;;;;;;;3.33;1.00;;;;;;;16.28;69.52;96431.19;4903530;29;20476;-80
2022/10/24 01:55:21;;;;;;;6.85;2.45;;;;;;;16.26;69.30;96425.34;4903336;29;20059;-80
2022/10/24 01:57:49;;;;;;;2.72;0.90;;;;;;;16.25;69.30;96429.81;4903669;29;20102;-80
2022/10/24 02:00:23;;;;;;;3.70;1.08;;;;;;;16.25;69.12;96435.09;4903546;29;20128;-80
2022/10/24 02:02:55;;;;;;;6.07;1.30;;;;;;;16.25;69.09;96442.97;4903731;29;20052;-80
2022/10/24 02:05:26;;;;;;;;;;;;;;;16.29;68.83;96448.63;4904030;29;20096;-80
2022/10/24 02:08:00;;;;;;;8.25;1.40;;;;;;;16.29;68.94;96440.72;4903863;29;20030;-80
2022/10/24 02:10:30;;;;;;;6.10;1.45;;;;;;;16.28;69.54;96442.53;4902964;29;20408;-80
2022/10/24 02:13:03;;;;;;;7.25;1.20;;;;;;;16.30;69.36;96457.31;4903056;29;20138;-80
2022/10/24 02:15:38;;;;;;;4.22;1.70;;;;;;;16.30;69.34;96434.41;4902500;29;20059;-80
2022/10/24 02:18:08;;;;;;;4.28;1.50;;;;;;;16.30;69.22;96431.78;4902551;29;20112;-80
2022/10/24 02:20:42;;;;;;;7.03;1.50;;;;;;;16.28;69.39;96428.56;4902636;29;20491;-79
2022/10/24 02:23:19;;;;;;;6.28;1.20;;;;;;;16.28;69.55;96428.56;4902685;29;20056;-80
2022/10/24 02:25:52;;;;;;;4.65;1.10;;;;;;;16.24;69.40;96430.81;4903418;29;20119;-80
2022/10/24 02:28:26;;;;;;;7.28;1.40;;;;;;;16.25;69.77;96424.56;4902393;29;20048;-80
2022/10/24 02:31:01;;;;;;;5.07;1.40;;;;;;;16.24;69.53;96428.19;4901192;29;20104;-80
2022/10/24 02:33:32;;;;;;;4.97;1.00;;;;;;;16.24;69.17;96435.28;4902402;29;20523;-80
2022/10/24 02:36:03;;;;;;;6.05;1.48;;;;;;;16.24;69.45;96441.34;4902264;29;20076;-80
2022/10/24 02:38:36;;;;;;;5.93;1.47;;;;;;;16.25;69.29;96440.34;4906626;29;20090;-80
2022/10/24 02:41:09;;;;;;;9.18;1.30;;;;;;;16.26;69.60;96447.19;4906726;29;20076;-80
2022/10/24 02:43:40;;;;;;;6.10;1.48;;;;;;;16.29;69.19;96432.81;4902517;29;20056;-80
2022/10/24 02:46:13;;;;;;;4.53;1.40;;;;;;;16.28;69.59;96434.63;4902303;29;20120;-80
2022/10/24 02:48:47;;;;;;;7.07;1.15;;;;;;;16.31;69.92;96428.13;4902521;29;20053;-78
2022/10/24 02:51:18;;;;;;;7.93;1.48;;;;;;;16.34;69.54;96432.16;4903065;29;20049;-78
2022/10/24 02:53:47;;;;;;;4.65;1.27;;;;;;;16.36;69.22;96428.25;4902168;29;20092;-80
2022/10/24 02:56:16;;;;;;;3.45;1.52;;;;;;;16.39;69.07;96424.38;4902430;29;20096;-80
2022/10/24 02:58:45;;;;;;;4.90;1.52;;;;;;;16.40;68.84;96429.44;4902098;29;20053;-80
2022/10/24 03:01:15;;;;;;;8.77;1.45;;;;;;;16.39;68.77;96429.66;4901873;29;20594;-80
2022/10/24 03:03:45;;;;;;;6.28;1.65;;;;;;;16.42;68.68;96435.28;4901228;29;20116;-79
2022/10/24 03:06:17;;;;;;;5.20;1.60;;;;;;;16.44;68.60;96443.75;4901561;29;20084;-80
2022/10/24 03:08:47;;;;;;;4.55;1.45;;;;;;;16.46;68.92;96462.78;4900777;29;20072;-80
2022/10/24 03:11:17;;;;;;;6.38;1.77;;;;;;;16.51;69.04;96456.00;4901055;29;20127;-79
2022/10/24 03:13:48;;;;;;;6.97;1.45;;;;;;;16.54;69.01;96450.31;4901207;29;20148;-80
2022/10/24 03:16:20;;;;;;;7.30;1.48;;;;;;;16.58;69.17;96443.59;4901529;29;20049;-80
2022/10/24 03:18:49;;;;;;;5.60;1.55;;;;;;;16.61;68.88;96445.75;4900758;29;20067;-80
2022/10/24 03:21:18;;;;;;;5.90;1.83;;;;;;;16.61;68.65;96437.84;4900772;29;20507;-80
2022/10/24 03:23:47;;;;;;;5.78;1.60;;;;;;;16.63;68.46;96433.97;4900652;29;20136;-80
2022/10/24 03:26:19;;;;;;;7.13;1.60;;;;;;;16.64;68.37;96427.69;4900781;29;20542;-80
2022/10/24 03:28:50;;;;;;;3.78;1.42;;;;;;;16.63;68.43;96425.28;4900569;29;20061;-80
2022/10/24 03:31:20;;;;;;;6.53;2.20;;;;;;;16.64;68.72;96419.00;4900814;29;20463;-79
2022/10/24 03:33:48;;;;;;;12.52;2.53;;;;;;;16.63;68.90;96423.44;4901252;29;20056;-79
2022/10/24 03:36:18;;;;;;;7.55;2.15;;;;;;;16.62;69.38;96415.78;4901506;29;20064;-80
2022/10/24 03:38:47;;;;;;;11.93;2.25;;;;;;;16.59;69.18;96421.47;4903777;29;20400;-80
2022/10/24 03:41:17;;;;;;;8.48;2.63;;;;;;;16.55;69.28;96407.97;4902889;29;20064;-80
2022/10/24 03:43:49;;;;;;;7.32;2.25;;;;;;;16.54;69.34;96416.09;4903873;29;20124;-78
2022/10/24 03:46:18;;;;;;;10.13;2.33;;;;;;;16.53;69.79;96420.56;4900639;29;20140;-79
2022/10/24 03:48:49;;;;;;;9.27;2.65;;;;;;;16.53;69.44;96425.81;4900146;29;20087;-79
2022/10/24 03:51:18;;;;;;;10.60;1.95;;;;;;;16.55;68.88;96422.94;4901034;29;20056;-79
2022/10/24 03:53:46;;;;;;;3.70;1.40;;;;;;;16.57;68.69;96426.16;4901253;29;20411;-78
2022/10/24 03:56:15;;;;;;;5.80;2.25;;;;;;;16.59;68.47;96416.22;4902366;29;20388;-79
2022/10/24 03:58:44;;;;;;;8.63;2.25;;;;;;;16.61;69.22;96443.91;4901809;29;20045;-79
2022/10/24 04:01:16;;;;;;;7.85;2.15;;;;;;;16.63;68.48;96418.16;4901499;29;20123;-80
2022/10/24 04:03:46;;;;;;;8.05;1.63;;;;;;;16.67;68.12;96426.44;4900592;29;20128;-79
2022/10/24 04:06:16;;;;;;;5.07;1.77;;;;;;;16.68;68.09;96438.56;4900116;29;20085;-79
2022/10/24 04:08:46;;;;;;;6.75;1.95;;;;;;;16.71;68.07;96435.50;4900272;29;20474;-79
2022/10/24 04:11:14;;;;;;;7.18;1.73;;;;;;;16.74;67.43;96431.59;4899653;29;20061;-79
2022/10/24 04:13:45;;;;;;;4.10;1.45;;;;;;;16.74;67.41;96421.88;4899154;29;20057;-79
2022/10/24 04:16:14;;;;;;;10.93;2.47;;;;;;;16.75;67.54;96420.84;4900305;29;20053;-80
2022/10/24 04:18:43;;;;;;;4.32;1.85;;;;;;;16.77;67.86;96410.91;4900121;29;20049;-79
2022/10/24 04:21:13;;;;;;;7.57;2.17;;;;;;;16.79;67.66;96411.47;4899810;29;20084;-79
2022/10/24 04:23:50;;;;;;;9.80;2.03;;;;;;;16.79;67.44;96424.66;4898409;29;20049;-79
2022/10/24 04:26:18;;;;;;;8.57;2.25;;;;;;;16.77;67.51;96413.53;4896845;29;20521;-79
2022/10/24 04:28:46;;;;;;;9.90;2.25;;;;;;;16.78;67.50;96409.06;4897296;29;20048;-80
2022/10/24 04:31:14;;;;;;;4.32;1.50;;;;;;;16.78;67.67;96412.50;4897087;29;20052;-79
2022/10/24 04:33:47;;;;;;;7.88;2.25;;;;;;;16.80;67.66;96420.22;4897027;29;20100;-79
2022/10/24 04:36:15;;;;;;;9.20;1.83;;;;;;;16.83;68.03;96427.66;4897011;29;20484;-79
2022/10/24 04:38:43;;;;;;;7.68;2.50;;;;;;;16.83;67.81;96420.53;4900171;29;20049;-79
2022/10/24 04:41:12;;;;;;;6.80;1.65;;;;;;;16.84;67.78;96426.63;4902143;29;20523;-79
2022/10/24 04:43:40;;;;;;;8.77;1.70;;;;;;;16.83;67.53;96431.06;4902264;29;20063;-77
2022/10/24 04:46:08;;;;;;;5.75;1.60;;;;;;;16.83;67.55;96435.53;4904050;29;20486;-78
2022/10/24 04:48:35;;;;;;;9.07;1.70;;;;;;;16.84;67.64;96437.16;4901032;29;20048;-78
2022/10/24 04:51:04;;;;;;;6.07;2.00;;;;;;;16.83;67.52;96431.06;4899870;29;20056;-78
2022/10/24 04:53:31;;;;;;;7.90;2.03;;;;;;;16.84;67.64;96430.06;4900506;29;20056;-78
2022/10/24 04:55:59;;;;;;;3.33;1.58;;;;;;;16.85;67.66;96413.22;4899919;29;20053;-78
2022/10/24 04:58:28;;;;;;;4.35;1.70;;;;;;;16.84;67.76;96416.91;4900100;29;20108;-78
2022/10/24 05:00:55;;;;;;;6.75;2.20;;;;;;;16.85;67.75;96421.13;4908273;29;20056;-78
2022/10/24 05:03:23;;;;;;;7.13;1.90;;;;;;;16.85;67.94;96407.94;4900369;29;20052;-79
2022/10/24 05:05:50;;;;;;;7.03;1.67;;;;;;;16.84;67.95;96419.53;4900119;29;20056;-79
2022/10/24 05:08:18;;;;;;;8.25;2.05;;;;;;;16.84;68.02;96421.38;4900091;29;20049;-78
2022/10/24 05:10:46;;;;;;;5.97;1.98;;;;;;;16.83;68.11;96420.53;4899767;29;20051;-79
2022/10/24 05:13:14;;;;;;;10.65;2.83;;;;;;;16.83;68.35;96420.53;4900022;29;20063;-78
2022/10/24 05:15:43;;;;;;;8.75;2.05;;;;;;;16.82;68.40;96418.94;4901160;29;20052;-78
2022/10/24 05:18:11;;;;;;;8.70;2.58;;;;;;;16.79;68.56;96419.38;4918410;29;20082;-78
2022/10/24 05:20:39;;;;;;;8.60;1.95;;;;;;;16.79;68.73;96408.84;4910722;29;20045;-79
2022/10/24 05:23:08;;;;;;;7.10;1.95;;;;;;;16.78;68.80;96401.94;4900137;29;20141;-78
2022/10/24 05:25:35;;;;;;;7.13;2.15;;;;;;;16.78;68.81;96411.69;4903923;29;20550;-78
2022/10/24 05:28:03;;;;;;;9.00;2.35;;;;;;;16.78;69.05;96417.75;4904959;29;20052;-77
2022/10/24 05:30:31;;;;;;;7.25;1.90;;;;;;;16.76;68.70;96413.75;4900750;29;20053;-79
2022/10/24 05:33:00;;;;;;;6.60;2.35;;;;;;;16.73;69.01;96414.22;4901267;29;20399;-78
2022/10/24 05:35:27;;;;;;;9.27;2.22;;;;;;;16.72;69.09;96416.03;4909029;29;20056;-79
2022/10/24 05:37:55;;;;;;;3.63;2.00;;;;;;;16.73;69.78;96414.22;4910385;29;20068;-79
2022/10/24 05:40:23;;;;;;;5.35;2.03;;;;;;;16.74;69.40;96427.13;4897637;29;20582;-79
2022/10/24 05:42:51;;;;;;;7.97;2.47;;;;;;;16.72;68.76;96429.19;4896984;29;20395;-79
2022/10/24 05:45:19;;;;;;;9.40;2.17;;;;;;;16.71;68.80;96434.69;4897736;29;20052;-80
2022/10/24 05:47:47;;;;;;;9.95;2.67;;;;;;;16.70;68.55;96449.69;4899142;29;20143;-79
2022/10/24 05:50:17;;;;;;;10.50;2.05;;;;;;;16.69;68.64;96451.50;4905210;29;20056;-79
2022/10/24 05:52:44;;;;;;;8.93;2.33;;;;;;;16.71;68.67;96450.50;4899113;29;20056;-79
2022/10/24 05:55:25;;;;;;;5.38;1.42;;;;;;;16.70;68.67;96447.03;4902780;29;20067;-79
2022/10/24 05:57:54;;;;;;;6.55;1.70;;;;;;;16.66;69.25;96430.06;4906180;29;20095;-78
2022/10/24 07:41:11;;;;;;;5.32;2.15;;;;;;;16.82;70.21;96482.16;5364328;23;20064;-81
2022/10/24 07:43:45;;;;;;;7.28;2.05;;;;;;;16.83;69.99;96504.03;4941624;29;20096;-82
2022/10/24 08:46:15;;;;;;;7.80;3.08;;;;;;;17.08;71.14;96585.59;5390588;23;20066;-79
2022/10/24 08:48:54;;;;;;;5.55;2.63;;;;;;;17.08;71.76;96590.88;4920505;29;20096;-82
2022/10/24 10:13:06;;;;;;;5.85;2.30;;;;;;;16.99;72.53;96553.50;5473190;23;20059;-79
2022/10/24 10:15:38;;;;;;;5.32;1.92;;;;;;;17.00;72.95;96564.81;4930654;29;20104;-78
2022/10/24 10:18:25;;;;;;;5.53;2.53;;;;;;;17.04;72.51;96568.63;4941831;29;20033;-79
2022/10/24 10:21:10;;;;;;;6.35;2.42;;;;;;;17.06;73.17;96566.56;5113948;23;20538;-78
2022/10/24 10:23:40;;;;;;;4.55;2.45;;;;;;;17.07;72.25;96573.44;4917044;29;20056;-78
2022/10/24 10:26:26;;;;;;;4.00;2.05;;;;;;;17.07;72.77;96573.44;4916429;29;20056;-77
2022/10/24 10:28:58;;;;;;;5.40;1.70;;;;;;;17.08;72.18;96575.06;4914702;29;20422;-78
2022/10/24 10:48:17;;;;;;;9.73;2.05;;;;;;;17.00;71.79;96499.75;4094665;23;20060;-82
2022/10/24 10:51:04;;;;;;;5.60;2.85;;;;;;;17.00;72.17;96535.84;4922112;29;20056;-80
2022/10/24 10:53:43;;;;;;;11.13;3.40;;;;;;;17.03;72.51;96551.19;4903515;29;20077;-78
2022/10/24 10:56:36;;;;;;;4.53;2.10;;;;;;;17.06;72.61;96535.75;4914751;29;20116;-78
2022/10/24 11:00:06;;;;;;;7.32;2.05;;;;;;;17.09;71.75;96487.06;4920235;29;20120;-80
2022/10/24 11:03:15;;;;;;;5.82;2.22;;;;;;;17.06;71.35;96538.38;4924808;29;20064;-79
2022/10/24 11:09:33;;;;;;;4.03;1.55;;;;;;;17.08;71.22;96527.63;4921665;29;20048;-80
2022/10/24 11:16:03;;;;;;;8.98;2.20;;;;;;;17.09;70.33;96535.28;4883814;29;20084;-79
2022/10/24 11:19:31;;;;;;;5.93;1.83;;;;;;;17.11;70.38;96527.16;5298255;23;20056;-79
2022/10/24 11:22:48;;;;;;;6.10;1.63;;;;;;;17.14;70.03;96547.78;5099225;23;20043;-79
2022/10/24 11:33:02;;;;;;;5.68;1.33;;;;;;;17.29;69.08;96547.38;4922459;29;20045;-79
2022/10/24 11:52:23;;;;;;;5.65;1.35;;;;;;;18.07;65.23;96551.63;4884053;29;20033;-80
2022/10/24 12:06:14;;;;;;;2.10;0.50;;;;;;;18.60;63.31;96555.13;4921677;29;20033;-80
2022/10/24 12:10:10;;;;;;;7.40;1.50;;;;;;;18.62;63.13;96549.59;4922643;29;20108;-80
2022/10/24 12:13:35;;;;;;;3.15;0.80;;;;;;;18.56;62.63;96548.69;4919805;29;20063;-79
2022/10/24 12:16:39;;;;;;;2.92;0.68;;;;;;;18.50;63.05;96534.59;4922210;29;20638;-80
2022/10/24 12:23:07;;;;;;;2.55;0.82;;;;;;;18.41;63.07;96530.72;4921746;29;20056;-80
2022/10/24 12:26:42;;;;;;;2.08;0.90;;;;;;;18.38;63.13;96527.72;4922143;29;20036;-80
2022/10/24 12:35:04;;;;;;;2.85;0.70;;;;;;;18.30;63.88;96529.69;5102814;23;20040;-79
2022/10/24 12:38:17;;;;;;;2.47;0.80;;;;;;;18.31;65.09;96509.38;4927342;29;20036;-82
2022/10/24 12:43:49;;;;;;;4.65;1.05;;;;;;;18.28;64.02;96504.56;4932346;29;20087;-80
2022/10/24 12:47:03;;;;;;;5.45;1.10;;;;;;;18.27;64.47;96476.53;4938725;29;20062;-77
2022/10/24 12:55:33;;;;;;;2.78;1.23;;;;;;;18.29;65.38;96506.94;5020903;23;20056;-81
2022/10/24 12:58:26;;;;;;;2.30;0.90;;;;;;;18.31;65.01;96525.22;4922665;29;20060;-79
2022/10/24 13:01:04;;;;;;;2.65;0.90;;;;;;;18.31;65.85;96515.44;4920397;29;20044;-79
2022/10/24 13:03:57;;;;;;;4.72;0.98;;;;;;;18.32;64.62;96514.44;4923367;29;20100;-80
2022/10/24 13:06:47;;;;;;;4.25;1.00;;;;;;;18.29;63.80;96522.00;4905497;29;20059;-79
2022/10/24 13:09:34;;;;;;;2.35;1.10;;;;;;;18.25;63.89;96521.66;4905885;29;20082;-78
2022/10/24 13:12:52;;;;;;;2.42;0.90;;;;;;;18.24;63.66;96513.97;4908347;29;20072;-79
2022/10/24 13:15:39;;;;;;;5.60;0.77;;;;;;;18.18;63.15;96514.91;4897793;29;20096;-82
2022/10/24 13:18:23;;;;;;;3.38;1.20;;;;;;;18.14;64.36;96513.75;4916222;29;20060;-81
2022/10/24 13:21:17;;;;;;;3.38;0.65;;;;;;;18.10;64.18;96519.50;4894701;29;20053;-83
2022/10/24 13:23:49;;;;;;;2.57;1.03;;;;;;;18.10;64.72;96524.78;4892236;29;20067;-83
2022/10/24 13:26:39;;;;;;;6.95;0.85;;;;;;;18.11;64.15;96513.19;4910923;29;20108;-80
2022/10/24 13:29:40;;;;;;;2.95;1.08;;;;;;;18.16;64.54;96517.75;4912474;29;20108;-80
2022/10/24 13:32:34;;;;;;;5.53;1.17;;;;;;;18.18;63.47;96523.63;4909816;29;20052;-80
2022/10/24 13:35:17;;;;;;;3.22;1.00;;;;;;;18.21;64.77;96528.41;4910017;29;20064;-80
2022/10/24 13:37:57;;;;;;;2.35;1.25;;;;;;;18.26;64.26;96527.75;4915524;29;20081;-80
2022/10/24 13:40:33;;;;;;;2.95;1.10;;;;;;;18.33;64.62;96525.78;4915338;29;20111;-80
2022/10/24 13:43:15;;;;;;;6.20;1.70;;;;;;;18.38;63.67;96517.16;4913433;29;20112;-80
2022/10/24 13:46:08;;;;;;;4.13;1.48;;;;;;;18.43;63.00;96528.66;4901452;29;20063;-79
2022/10/24 13:52:28;;;;;;;1.58;1.08;;;;;;;18.42;63.16;96532.31;4973364;23;20151;-79
2022/10/24 13:55:28;;;;;;;2.30;1.30;;;;;;;18.37;62.64;96529.56;4906368;29;20093;-80
2022/10/24 13:58:09;;;;;;;3.33;1.10;;;;;;;18.31;62.83;96531.28;4922608;29;20079;-79
2022/10/24 14:04:25;;;;;;;3.75;1.58;;;;;;;18.24;63.31;96530.63;4923278;29;20051;-80
2022/10/24 14:07:07;;;;;;;2.70;1.23;;;;;;;18.21;63.40;96530.28;4908222;29;20168;-79
2022/10/24 14:12:55;;;;;;;3.00;1.52;;;;;;;18.14;62.79;96533.03;4903088;29;20049;-79
2022/10/24 14:15:41;;;;;;;2.30;1.20;;;;;;;18.10;62.33;96523.97;4904135;29;20519;-80
2022/10/24 14:18:24;;;;;;;2.28;1.50;;;;;;;18.07;63.07;96525.22;4904382;29;20045;-79
2022/10/24 14:21:31;;;;;;;2.03;1.10;;;;;;;18.02;62.53;96522.50;4904345;29;20043;-79
2022/10/24 14:41:09;;;;;;;4.30;1.55;;;;;;;17.78;63.65;96532.22;1249824;27;20111;-80
2022/10/24 14:43:53;;;;;;;2.42;1.00;;;;;;;17.78;64.17;96547.25;4941549;29;20056;-79
2022/10/24 14:46:37;;;;;;;1.80;0.93;;;;;;;17.76;63.96;96544.03;4939450;29;20116;-79
2022/10/24 14:52:25;;;;;;;2.95;1.35;;;;;;;17.73;63.84;96555.81;4940670;29;20059;-79
2022/10/24 14:55:13;;;;;;;2.08;0.77;;;;;;;17.68;63.42;96548.59;4932183;29;20054;-81
2022/10/24 14:57:55;;;;;;;1.95;0.90;;;;;;;17.68;64.05;96553.06;4932493;29;20024;-79
2022/10/24 15:00:44;;;;;;;2.55;0.85;;;;;;;17.67;63.79;96551.50;4940085;29;20047;-79
2022/10/24 15:03:30;;;;;;;3.55;0.98;;;;;;;17.64;64.34;96534.25;4941536;29;20059;-79
2022/10/24 15:06:27;;;;;;;2.17;0.93;;;;;;;17.62;63.42;96532.88;4940784;29;20048;-80
2022/10/24 15:12:04;;;;;;;3.15;0.85;;;;;;;17.57;64.27;96525.66;4920972;29;20056;-81
2022/10/24 15:14:46;;;;;;;2.22;1.00;;;;;;;17.56;64.70;96524.06;4921302;29;20056;-79
2022/10/24 15:17:29;;;;;;;1.88;0.80;;;;;;;17.54;64.03;96528.75;4921519;29;20577;-79
2022/10/24 15:20:07;;;;;;;2.58;0.80;;;;;;;17.53;63.84;96532.41;4933043;29;20056;-80
2022/10/24 15:22:50;;;;;;;2.38;0.70;;;;;;;17.53;63.32;96542.97;4940216;29;20076;-79
2022/10/24 15:25:36;;;;;;;3.35;0.80;;;;;;;17.48;62.92;96553.41;4940970;29;20068;-79
2022/10/24 15:28:37;;;;;;;4.03;0.68;;;;;;;17.49;63.65;96552.34;4941048;29;20052;-80
2022/10/24 15:31:16;;;;;;;2.50;0.88;;;;;;;17.48;63.11;96553.41;4941288;28;20052;-82
2022/10/24 15:33:59;;;;;;;2.92;0.90;;;;;;;17.45;63.21;96559.94;4938317;29;20044;-79
2022/10/24 15:36:41;;;;;;;2.35;0.80;;;;;;;17.45;63.07;96559.13;4949916;29;20070;-81
2022/10/24 15:39:24;;;;;;;3.88;0.85;;;;;;;17.42;63.36;96560.38;4959559;29;20071;-79
2022/10/24 15:42:16;;;;;;;3.95;0.90;;;;;;;17.43;63.47;96566.47;4938198;29;20055;-79
2022/10/24 15:44:55;;;;;;;1.73;0.90;;;;;;;17.39;63.99;96562.66;4850359;29;20057;-79
2022/10/24 15:47:52;;;;;;;0.90;0.73;;;;;;;17.37;64.26;96562.09;4845207;29;20062;-79
2022/10/24 15:58:53;;;;;;;1.48;0.70;;;;;;;17.22;64.26;96565.13;5200820;23;20546;-79
2022/10/24 16:01:39;;;;;;;2.80;0.70;;;;;;;17.17;65.68;96576.34;4925975;29;20052;-80
2022/10/24 16:04:22;;;;;;;2.38;0.90;;;;;;;17.15;66.18;96565.22;4900060;29;20116;-82
2022/10/24 16:06:53;;;;;;;2.85;1.00;;;;;;;17.11;66.45;96564.06;4907935;29;20495;-80
2022/10/24 16:09:40;;;;;;;4.10;2.05;;;;;;;17.07;65.59;96568.16;4915942;29;20049;-79
2022/10/24 16:12:20;;;;;;;1.92;0.55;;;;;;;17.03;65.59;96574.91;4923767;29;20040;-80
2022/10/24 16:15:14;;;;;;;3.38;0.88;;;;;;;16.99;64.75;96577.22;4940601;29;20052;-79
2022/10/24 16:17:58;;;;;;;2.65;1.40;;;;;;;16.96;66.23;96584.75;4938606;29;20040;-80
2022/10/24 16:20:36;;;;;;;5.15;1.30;;;;;;;16.94;65.75;96589.44;4937951;29;20107;-80
2022/10/24 16:23:17;;;;;;;3.72;1.50;;;;;;;16.91;65.37;96589.88;4910157;29;20082;-80
2022/10/24 16:25:47;;;;;;;3.22;1.20;;;;;;;16.88;66.26;96583.22;4906814;29;20057;-80
2022/10/24 16:28:19;;;;;;;;;;;;;;;16.89;65.53;96588.25;4897366;29;20049;-81
2022/10/24 16:30:52;;;;;;;3.72;1.20;;;;;;;16.85;65.49;96591.56;4911261;29;19931;-80
2022/10/24 16:33:21;;;;;;;4.10;1.60;;;;;;;16.82;65.74;96587.53;4918966;29;20074;-82
2022/10/24 16:35:50;;;;;;;2.17;1.00;;;;;;;16.80;65.71;96579.06;5117133;23;20063;-79
2022/10/24 16:38:18;;;;;;;3.65;1.23;;;;;;;16.78;66.02;96590.81;4931911;29;20116;-79
2022/10/24 16:40:50;;;;;;;1.65;1.20;;;;;;;16.78;66.29;96588.97;4931809;29;20044;-80
2022/10/24 16:43:23;;;;;;;3.45;1.13;;;;;;;16.75;65.71;96592.06;4921767;29;20128;-79
2022/10/24 16:46:02;;;;;;;1.20;0.93;;;;;;;16.73;65.10;96599.38;4920359;29;20075;-78
2022/10/24 16:48:30;;;;;;;3.85;1.55;;;;;;;16.68;65.71;96597.41;4916320;29;20144;-78
2022/10/24 16:50:59;;;;;;;2.28;0.90;;;;;;;16.66;65.36;96590.72;4902076;29;20059;-79
2022/10/24 16:53:27;;;;;;;3.40;1.08;;;;;;;16.65;66.65;96587.31;4901128;29;20063;-78
2022/10/24 16:55:55;;;;;;;2.50;1.08;;;;;;;16.64;66.95;96585.69;4908637;29;20103;-78
2022/10/24 16:58:24;;;;;;;4.72;1.10;;;;;;;16.61;65.53;96586.13;4919690;29;20052;-78
2022/10/24 17:01:02;;;;;;;3.55;1.30;;;;;;;16.60;66.52;96599.53;4919646;29;20051;-77
2022/10/24 17:03:31;;;;;;;5.20;1.23;;;;;;;16.58;66.74;96599.75;4917155;29;20507;-78
2022/10/24 17:06:00;;;;;;;3.63;1.10;;;;;;;16.55;65.90;96594.09;4901824;29;20045;-79
2022/10/24 17:08:28;;;;;;;3.28;1.33;;;;;;;16.53;66.26;96586.44;4900835;29;20060;-78
2022/10/24 17:10:57;;;;;;;1.83;1.20;;;;;;;16.51;65.95;96585.03;4900701;29;20151;-77
2022/10/24 17:13:25;;;;;;;8.18;2.08;;;;;;;16.46;65.49;96599.69;4894652;29;20057;-78
2022/10/24 17:15:52;;;;;;;3.83;1.25;;;;;;;16.43;65.53;96608.00;4901640;29;20053;-77
2022/10/24 17:18:22;;;;;;;25.67;16.85;;;;;;;16.41;65.65;96601.34;4901262;29;20483;-76
2022/10/24 17:20:50;;;;;;;10.18;5.97;;;;;;;16.41;66.04;96604.78;4912064;29;20078;-75
2022/10/24 17:23:20;;;;;;;2.85;1.45;;;;;;;16.38;65.44;96597.34;4918527;29;20059;-76
2022/10/24 17:25:48;;;;;;;6.85;4.65;;;;;;;16.39;67.29;96590.22;4907137;29;20057;-76
2022/10/24 17:28:16;;;;;;;6.07;2.20;;;;;;;16.39;66.17;96591.03;4915354;29;20072;-76
2022/10/24 17:30:44;;;;;;;6.72;1.38;;;;;;;16.36;65.97;96594.09;4899371;29;20187;-76
2022/10/24 17:33:11;;;;;;;5.80;1.85;;;;;;;16.34;65.82;96590.88;4912454;29;20041;-75
2022/10/24 17:35:44;;;;;;;4.28;2.33;;;;;;;16.31;65.71;96596.59;4899324;29;20799;-76
2022/10/24 17:38:24;;;;;;;3.08;1.65;;;;;;;16.28;65.77;96586.50;4901264;29;20059;-76
2022/10/24 17:40:57;;;;;;;7.10;2.35;;;;;;;16.28;66.27;96584.66;4899397;29;20084;-76
2022/10/24 17:43:27;;;;;;;5.82;1.55;;;;;;;16.29;66.48;96588.13;4905859;29;20052;-75
2022/10/24 17:45:56;;;;;;;3.97;1.20;;;;;;;16.28;66.69;96597.81;4915639;29;20067;-75
2022/10/24 17:48:24;;;;;;;2.45;1.23;;;;;;;16.32;66.06;96602.66;4898572;29;20068;-76
2022/10/24 17:50:55;;;;;;;3.80;1.17;;;;;;;16.31;66.05;96604.50;4898547;29;20455;-77
2022/10/24 17:53:22;;;;;;;5.28;1.55;;;;;;;16.31;65.73;96615.03;4899500;29;20052;-76
2022/10/24 17:55:50;;;;;;;3.15;1.45;;;;;;;16.31;66.00;96607.13;4905572;29;20052;-76
2022/10/24 17:58:20;;;;;;;4.18;1.70;;;;;;;16.35;67.04;96613.53;4903669;29;20053;-76
2022/10/24 18:00:47;;;;;;;4.15;2.15;;;;;;;16.37;67.07;96621.22;4912490;29;20442;-76
2022/10/24 18:03:15;;;;;;;2.60;1.33;;;;;;;16.38;66.42;96623.66;4898493;29;20112;-76
2022/10/24 18:05:43;;;;;;;5.78;1.90;;;;;;;16.37;66.17;96616.75;4899943;29;20053;-77
2022/10/24 18:08:15;;;;;;;4.55;1.85;;;;;;;16.37;66.32;96618.59;4913966;29;20430;-76
2022/10/24 18:10:42;;;;;;;2.95;1.50;;;;;;;16.38;66.73;96625.50;4892939;29;20521;-77
2022/10/24 18:13:10;;;;;;;2.13;1.30;;;;;;;16.40;66.88;96632.13;4898264;29;20053;-78
2022/10/24 18:15:40;;;;;;;1.88;1.20;;;;;;;16.40;66.70;96632.13;4885676;29;20060;-77
2022/10/24 18:18:08;;;;;;;2.28;1.52;;;;;;;16.39;66.24;96627.88;4906000;29;20060;-76
2022/10/24 18:20:35;;;;;;;3.25;1.42;;;;;;;16.36;66.82;96628.34;4899377;29;20141;-76